sensor_id;sensor_type;location;lat;lon;timestamp;P1;durP1;ratioP1;P2;durP2;ratioP2
15043;SDS011;7619;48.562;8.910;2023-07-08T00:00:32;6.20;;;3.67;;
15043;SDS011;7619;48.562;8.910;2023-07-08T00:03:00;4.20;;;2.87;;
15043;SDS011;7619;48.562;8.910;2023-07-08T00:05:28;4.60;;;2.57;;
15043;SDS011;7619;48.562;8.910;2023-07-08T00:07:56;5.37;;;2.80;;
15043;SDS011;7619;48.562;8.910;2023-07-08T00:10:24;4.37;;;2.60;;
15043;SDS011;7619;48.562;8.910;2023-07-08T00:12:53;3.77;;;2.50;;
15043;SDS011;7619;48.562;8.910;2023-07-08T00:15:22;5.47;;;2.70;;
15043;SDS011;7619;48.562;8.910;2023-07-08T00:17:52;4.20;;;3.10;;
15043;SDS011;7619;48.562;8.910;2023-07-08T00:20:21;6.83;;;3.33;;
15043;SDS011;7619;48.562;8.910;2023-07-08T00:22:50;4.27;;;2.70;;
15043;SDS011;7619;48.562;8.910;2023-07-08T00:25:18;5.47;;;3.10;;
15043;SDS011;7619;48.562;8.910;2023-07-08T00:27:46;6.13;;;3.10;;
15043;SDS011;7619;48.562;8.910;2023-07-08T00:30:18;3.33;;;2.43;;
15043;SDS011;7619;48.562;8.910;2023-07-08T00:32:46;4.70;;;2.80;;
15043;SDS011;7619;48.562;8.910;2023-07-08T00:35:16;3.53;;;2.50;;
15043;SDS011;7619;48.562;8.910;2023-07-08T00:37:44;4.20;;;2.93;;
15043;SDS011;7619;48.562;8.910;2023-07-08T00:40:17;4.57;;;2.53;;
15043;SDS011;7619;48.562;8.910;2023-07-08T00:42:46;4.70;;;3.03;;
15043;SDS011;7619;48.562;8.910;2023-07-08T00:45:20;5.40;;;3.43;;
15043;SDS011;7619;48.562;8.910;2023-07-08T00:47:48;5.27;;;3.20;;
15043;SDS011;7619;48.562;8.910;2023-07-08T00:50:17;7.03;;;3.30;;
15043;SDS011;7619;48.562;8.910;2023-07-08T00:52:46;4.83;;;3.13;;
15043;SDS011;7619;48.562;8.910;2023-07-08T00:55:14;4.00;;;3.10;;
15043;SDS011;7619;48.562;8.910;2023-07-08T00:57:42;4.47;;;2.43;;
15043;SDS011;7619;48.562;8.910;2023-07-08T01:00:13;4.73;;;3.07;;
15043;SDS011;7619;48.562;8.910;2023-07-08T01:02:44;4.80;;;3.07;;
15043;SDS011;7619;48.562;8.910;2023-07-08T01:05:13;7.17;;;2.77;;
15043;SDS011;7619;48.562;8.910;2023-07-08T01:07:42;3.83;;;2.77;;
15043;SDS011;7619;48.562;8.910;2023-07-08T01:10:12;5.10;;;2.97;;
15043;SDS011;7619;48.562;8.910;2023-07-08T01:12:41;5.50;;;2.90;;
15043;SDS011;7619;48.562;8.910;2023-07-08T01:15:10;4.60;;;2.87;;
15043;SDS011;7619;48.562;8.910;2023-07-08T01:17:39;4.93;;;3.50;;
15043;SDS011;7619;48.562;8.910;2023-07-08T01:20:08;6.30;;;3.10;;
15043;SDS011;7619;48.562;8.910;2023-07-08T01:22:39;5.87;;;3.20;;
15043;SDS011;7619;48.562;8.910;2023-07-08T01:25:08;5.40;;;3.20;;
15043;SDS011;7619;48.562;8.910;2023-07-08T01:27:38;4.50;;;3.13;;
15043;SDS011;7619;48.562;8.910;2023-07-08T01:30:07;3.73;;;2.60;;
15043;SDS011;7619;48.562;8.910;2023-07-08T01:32:36;6.40;;;3.60;;
15043;SDS011;7619;48.562;8.910;2023-07-08T01:35:05;5.00;;;3.30;;
15043;SDS011;7619;48.562;8.910;2023-07-08T01:37:34;7.00;;;2.97;;
15043;SDS011;7619;48.562;8.910;2023-07-08T01:43:03;8.73;;;3.77;;
15043;SDS011;7619;48.562;8.910;2023-07-08T01:45:32;6.47;;;2.90;;
15043;SDS011;7619;48.562;8.910;2023-07-08T01:48:02;3.93;;;2.80;;
15043;SDS011;7619;48.562;8.910;2023-07-08T01:50:31;4.27;;;2.83;;
15043;SDS011;7619;48.562;8.910;2023-07-08T01:53:00;2.83;;;2.23;;
15043;SDS011;7619;48.562;8.910;2023-07-08T01:55:29;6.07;;;3.03;;
15043;SDS011;7619;48.562;8.910;2023-07-08T01:57:58;5.33;;;3.20;;
15043;SDS011;7619;48.562;8.910;2023-07-08T02:00:26;5.10;;;3.23;;
15043;SDS011;7619;48.562;8.910;2023-07-08T02:02:54;6.47;;;3.40;;
15043;SDS011;7619;48.562;8.910;2023-07-08T02:05:22;5.33;;;3.27;;
15043;SDS011;7619;48.562;8.910;2023-07-08T02:07:50;5.27;;;3.00;;
15043;SDS011;7619;48.562;8.910;2023-07-08T02:10:18;4.83;;;3.00;;
15043;SDS011;7619;48.562;8.910;2023-07-08T02:12:46;6.93;;;3.53;;
15043;SDS011;7619;48.562;8.910;2023-07-08T02:15:15;6.87;;;3.43;;
15043;SDS011;7619;48.562;8.910;2023-07-08T02:17:42;5.40;;;3.00;;
15043;SDS011;7619;48.562;8.910;2023-07-08T02:20:11;4.27;;;3.03;;
15043;SDS011;7619;48.562;8.910;2023-07-08T02:22:39;3.47;;;2.80;;
15043;SDS011;7619;48.562;8.910;2023-07-08T02:25:08;4.47;;;2.97;;
15043;SDS011;7619;48.562;8.910;2023-07-08T02:27:36;5.50;;;3.10;;
15043;SDS011;7619;48.562;8.910;2023-07-08T02:30:06;5.80;;;3.47;;
15043;SDS011;7619;48.562;8.910;2023-07-08T02:32:34;4.47;;;3.37;;
15043;SDS011;7619;48.562;8.910;2023-07-08T02:35:04;4.50;;;3.30;;
15043;SDS011;7619;48.562;8.910;2023-07-08T02:37:33;5.00;;;3.20;;
15043;SDS011;7619;48.562;8.910;2023-07-08T02:40:01;4.57;;;2.83;;
15043;SDS011;7619;48.562;8.910;2023-07-08T02:42:30;5.97;;;3.47;;
15043;SDS011;7619;48.562;8.910;2023-07-08T02:44:58;6.20;;;3.30;;
15043;SDS011;7619;48.562;8.910;2023-07-08T02:47:26;4.57;;;3.10;;
15043;SDS011;7619;48.562;8.910;2023-07-08T02:49:54;6.53;;;3.77;;
15043;SDS011;7619;48.562;8.910;2023-07-08T02:52:22;5.80;;;3.60;;
15043;SDS011;7619;48.562;8.910;2023-07-08T02:54:50;5.10;;;3.30;;
15043;SDS011;7619;48.562;8.910;2023-07-08T02:57:18;7.10;;;3.50;;
15043;SDS011;7619;48.562;8.910;2023-07-08T02:59:46;5.30;;;3.20;;
15043;SDS011;7619;48.562;8.910;2023-07-08T03:02:16;4.80;;;2.93;;
15043;SDS011;7619;48.562;8.910;2023-07-08T03:04:45;5.63;;;3.23;;
15043;SDS011;7619;48.562;8.910;2023-07-08T03:07:13;5.80;;;2.90;;
15043;SDS011;7619;48.562;8.910;2023-07-08T03:09:42;6.47;;;3.43;;
15043;SDS011;7619;48.562;8.910;2023-07-08T03:12:10;4.93;;;2.87;;
15043;SDS011;7619;48.562;8.910;2023-07-08T03:14:39;5.80;;;3.00;;
15043;SDS011;7619;48.562;8.910;2023-07-08T03:17:07;6.73;;;3.23;;
15043;SDS011;7619;48.562;8.910;2023-07-08T03:19:35;4.37;;;3.17;;
15043;SDS011;7619;48.562;8.910;2023-07-08T03:22:04;5.17;;;3.50;;
15043;SDS011;7619;48.562;8.910;2023-07-08T03:24:33;4.27;;;3.23;;
15043;SDS011;7619;48.562;8.910;2023-07-08T03:27:02;4.70;;;2.47;;
15043;SDS011;7619;48.562;8.910;2023-07-08T03:29:33;5.57;;;3.37;;
15043;SDS011;7619;48.562;8.910;2023-07-08T03:32:01;7.27;;;3.77;;
15043;SDS011;7619;48.562;8.910;2023-07-08T03:34:30;5.83;;;3.60;;
15043;SDS011;7619;48.562;8.910;2023-07-08T03:36:58;5.13;;;3.17;;
15043;SDS011;7619;48.562;8.910;2023-07-08T03:39:26;4.50;;;3.03;;
15043;SDS011;7619;48.562;8.910;2023-07-08T03:41:54;5.63;;;3.23;;
15043;SDS011;7619;48.562;8.910;2023-07-08T03:44:22;5.97;;;3.87;;
15043;SDS011;7619;48.562;8.910;2023-07-08T03:46:50;5.27;;;4.10;;
15043;SDS011;7619;48.562;8.910;2023-07-08T03:49:19;5.30;;;3.20;;
15043;SDS011;7619;48.562;8.910;2023-07-08T03:51:49;4.50;;;2.90;;
15043;SDS011;7619;48.562;8.910;2023-07-08T03:54:18;5.60;;;3.97;;
15043;SDS011;7619;48.562;8.910;2023-07-08T03:56:46;5.50;;;3.37;;
15043;SDS011;7619;48.562;8.910;2023-07-08T03:59:15;5.47;;;3.73;;
15043;SDS011;7619;48.562;8.910;2023-07-08T04:01:44;5.53;;;3.27;;
15043;SDS011;7619;48.562;8.910;2023-07-08T04:04:13;7.03;;;3.93;;
15043;SDS011;7619;48.562;8.910;2023-07-08T04:06:42;4.20;;;3.00;;
15043;SDS011;7619;48.562;8.910;2023-07-08T04:09:11;6.20;;;3.47;;
15043;SDS011;7619;48.562;8.910;2023-07-08T04:11:39;5.43;;;3.50;;
15043;SDS011;7619;48.562;8.910;2023-07-08T04:14:08;5.33;;;3.63;;
15043;SDS011;7619;48.562;8.910;2023-07-08T04:16:42;5.70;;;3.50;;
15043;SDS011;7619;48.562;8.910;2023-07-08T04:19:12;7.87;;;3.87;;
15043;SDS011;7619;48.562;8.910;2023-07-08T04:21:41;4.30;;;3.17;;
15043;SDS011;7619;48.562;8.910;2023-07-08T04:24:10;6.30;;;3.77;;
15043;SDS011;7619;48.562;8.910;2023-07-08T04:26:38;4.83;;;3.23;;
15043;SDS011;7619;48.562;8.910;2023-07-08T04:29:09;5.83;;;3.47;;
15043;SDS011;7619;48.562;8.910;2023-07-08T04:31:37;6.07;;;3.70;;
15043;SDS011;7619;48.562;8.910;2023-07-08T04:34:05;6.23;;;3.43;;
15043;SDS011;7619;48.562;8.910;2023-07-08T04:36:33;5.33;;;3.60;;
15043;SDS011;7619;48.562;8.910;2023-07-08T04:39:02;5.77;;;3.50;;
15043;SDS011;7619;48.562;8.910;2023-07-08T04:41:30;7.03;;;4.00;;
15043;SDS011;7619;48.562;8.910;2023-07-08T04:43:58;5.20;;;3.87;;
15043;SDS011;7619;48.562;8.910;2023-07-08T04:46:31;4.03;;;3.20;;
15043;SDS011;7619;48.562;8.910;2023-07-08T04:49:01;6.07;;;3.30;;
15043;SDS011;7619;48.562;8.910;2023-07-08T04:51:30;5.83;;;3.83;;
15043;SDS011;7619;48.562;8.910;2023-07-08T04:53:58;6.87;;;4.97;;
15043;SDS011;7619;48.562;8.910;2023-07-08T04:56:33;8.40;;;6.07;;
15043;SDS011;7619;48.562;8.910;2023-07-08T04:58:55;6.43;;;4.40;;
15043;SDS011;7619;48.562;8.910;2023-07-08T05:01:23;6.30;;;4.43;;
15043;SDS011;7619;48.562;8.910;2023-07-08T05:03:53;6.60;;;4.33;;
15043;SDS011;7619;48.562;8.910;2023-07-08T05:06:21;8.00;;;5.40;;
15043;SDS011;7619;48.562;8.910;2023-07-08T05:08:49;8.20;;;4.77;;
15043;SDS011;7619;48.562;8.910;2023-07-08T05:11:17;8.30;;;4.67;;
15043;SDS011;7619;48.562;8.910;2023-07-08T05:13:49;8.43;;;5.43;;
15043;SDS011;7619;48.562;8.910;2023-07-08T05:16:23;9.33;;;6.07;;
15043;SDS011;7619;48.562;8.910;2023-07-08T05:18:51;9.30;;;5.90;;
15043;SDS011;7619;48.562;8.910;2023-07-08T05:21:19;7.23;;;5.33;;
15043;SDS011;7619;48.562;8.910;2023-07-08T05:23:47;9.07;;;5.67;;
15043;SDS011;7619;48.562;8.910;2023-07-08T05:26:16;7.53;;;5.47;;
15043;SDS011;7619;48.562;8.910;2023-07-08T05:28:44;8.33;;;5.53;;
15043;SDS011;7619;48.562;8.910;2023-07-08T05:31:12;8.00;;;5.33;;
15043;SDS011;7619;48.562;8.910;2023-07-08T05:33:40;8.53;;;5.40;;
15043;SDS011;7619;48.562;8.910;2023-07-08T05:36:09;8.47;;;5.80;;
15043;SDS011;7619;48.562;8.910;2023-07-08T05:38:37;8.47;;;5.10;;
15043;SDS011;7619;48.562;8.910;2023-07-08T05:41:05;8.87;;;4.87;;
15043;SDS011;7619;48.562;8.910;2023-07-08T05:43:33;7.67;;;4.87;;
15043;SDS011;7619;48.562;8.910;2023-07-08T05:46:01;12.47;;;3.87;;
15043;SDS011;7619;48.562;8.910;2023-07-08T05:48:29;5.50;;;4.03;;
15043;SDS011;7619;48.562;8.910;2023-07-08T05:50:57;5.07;;;3.77;;
15043;SDS011;7619;48.562;8.910;2023-07-08T05:53:25;5.50;;;3.77;;
15043;SDS011;7619;48.562;8.910;2023-07-08T05:55:53;6.30;;;3.47;;
15043;SDS011;7619;48.562;8.910;2023-07-08T05:58:21;7.20;;;4.67;;
15043;SDS011;7619;48.562;8.910;2023-07-08T06:00:54;6.83;;;4.00;;
15043;SDS011;7619;48.562;8.910;2023-07-08T06:03:19;5.70;;;4.33;;
15043;SDS011;7619;48.562;8.910;2023-07-08T06:05:47;6.93;;;4.60;;
15043;SDS011;7619;48.562;8.910;2023-07-08T06:08:16;5.53;;;3.80;;
15043;SDS011;7619;48.562;8.910;2023-07-08T06:10:44;6.20;;;4.00;;
15043;SDS011;7619;48.562;8.910;2023-07-08T06:13:12;9.40;;;4.73;;
15043;SDS011;7619;48.562;8.910;2023-07-08T06:15:41;7.43;;;4.63;;
15043;SDS011;7619;48.562;8.910;2023-07-08T06:18:09;7.33;;;4.33;;
15043;SDS011;7619;48.562;8.910;2023-07-08T06:20:37;5.67;;;3.43;;
15043;SDS011;7619;48.562;8.910;2023-07-08T06:23:05;6.13;;;4.20;;
15043;SDS011;7619;48.562;8.910;2023-07-08T06:25:33;5.93;;;4.40;;
15043;SDS011;7619;48.562;8.910;2023-07-08T06:28:01;6.53;;;4.10;;
15043;SDS011;7619;48.562;8.910;2023-07-08T06:30:29;6.40;;;4.00;;
15043;SDS011;7619;48.562;8.910;2023-07-08T06:32:57;5.77;;;3.97;;
15043;SDS011;7619;48.562;8.910;2023-07-08T06:35:25;7.07;;;4.03;;
15043;SDS011;7619;48.562;8.910;2023-07-08T06:37:54;5.93;;;3.97;;
15043;SDS011;7619;48.562;8.910;2023-07-08T06:40:21;5.30;;;3.90;;
15043;SDS011;7619;48.562;8.910;2023-07-08T06:42:50;6.33;;;3.77;;
15043;SDS011;7619;48.562;8.910;2023-07-08T06:45:18;5.17;;;3.80;;
15043;SDS011;7619;48.562;8.910;2023-07-08T06:47:46;5.50;;;3.80;;
15043;SDS011;7619;48.562;8.910;2023-07-08T06:50:14;6.37;;;3.97;;
15043;SDS011;7619;48.562;8.910;2023-07-08T06:52:42;6.67;;;3.70;;
15043;SDS011;7619;48.562;8.910;2023-07-08T06:55:10;7.03;;;4.47;;
15043;SDS011;7619;48.562;8.910;2023-07-08T06:57:39;7.73;;;5.03;;
15043;SDS011;7619;48.562;8.910;2023-07-08T07:00:08;6.97;;;4.13;;
15043;SDS011;7619;48.562;8.910;2023-07-08T07:02:36;7.03;;;4.27;;
15043;SDS011;7619;48.562;8.910;2023-07-08T07:05:05;5.40;;;3.77;;
15043;SDS011;7619;48.562;8.910;2023-07-08T07:07:33;4.93;;;3.43;;
15043;SDS011;7619;48.562;8.910;2023-07-08T07:10:01;6.97;;;3.73;;
15043;SDS011;7619;48.562;8.910;2023-07-08T07:12:29;4.77;;;3.57;;
15043;SDS011;7619;48.562;8.910;2023-07-08T07:14:58;6.07;;;4.30;;
15043;SDS011;7619;48.562;8.910;2023-07-08T07:17:26;7.97;;;4.33;;
15043;SDS011;7619;48.562;8.910;2023-07-08T07:19:54;6.47;;;3.77;;
15043;SDS011;7619;48.562;8.910;2023-07-08T07:22:22;5.57;;;3.83;;
15043;SDS011;7619;48.562;8.910;2023-07-08T07:24:50;5.40;;;3.87;;
15043;SDS011;7619;48.562;8.910;2023-07-08T07:27:18;6.33;;;3.80;;
15043;SDS011;7619;48.562;8.910;2023-07-08T07:29:47;4.73;;;3.30;;
15043;SDS011;7619;48.562;8.910;2023-07-08T07:32:19;4.43;;;3.07;;
15043;SDS011;7619;48.562;8.910;2023-07-08T07:34:48;5.47;;;3.77;;
15043;SDS011;7619;48.562;8.910;2023-07-08T07:37:17;7.13;;;3.53;;
15043;SDS011;7619;48.562;8.910;2023-07-08T07:39:46;7.30;;;3.90;;
15043;SDS011;7619;48.562;8.910;2023-07-08T07:42:15;5.03;;;3.60;;
15043;SDS011;7619;48.562;8.910;2023-07-08T07:44:43;6.47;;;3.40;;
15043;SDS011;7619;48.562;8.910;2023-07-08T07:47:11;3.43;;;2.90;;
15043;SDS011;7619;48.562;8.910;2023-07-08T07:49:40;5.67;;;3.10;;
15043;SDS011;7619;48.562;8.910;2023-07-08T07:52:08;4.80;;;3.23;;
15043;SDS011;7619;48.562;8.910;2023-07-08T07:54:37;5.37;;;3.80;;
15043;SDS011;7619;48.562;8.910;2023-07-08T07:57:06;4.60;;;3.47;;
15043;SDS011;7619;48.562;8.910;2023-07-08T07:59:34;8.10;;;3.57;;
15043;SDS011;7619;48.562;8.910;2023-07-08T08:02:02;7.97;;;4.20;;
15043;SDS011;7619;48.562;8.910;2023-07-08T08:04:30;5.63;;;3.20;;
15043;SDS011;7619;48.562;8.910;2023-07-08T08:06:58;5.17;;;3.53;;
15043;SDS011;7619;48.562;8.910;2023-07-08T08:09:26;5.33;;;3.27;;
15043;SDS011;7619;48.562;8.910;2023-07-08T08:11:54;6.80;;;3.60;;
15043;SDS011;7619;48.562;8.910;2023-07-08T08:14:22;5.83;;;3.50;;
15043;SDS011;7619;48.562;8.910;2023-07-08T08:16:50;5.60;;;3.03;;
15043;SDS011;7619;48.562;8.910;2023-07-08T08:19:18;4.43;;;3.53;;
15043;SDS011;7619;48.562;8.910;2023-07-08T08:21:47;4.67;;;3.13;;
15043;SDS011;7619;48.562;8.910;2023-07-08T08:24:15;5.77;;;3.37;;
15043;SDS011;7619;48.562;8.910;2023-07-08T08:29:20;3.07;;;2.77;;
15043;SDS011;7619;48.562;8.910;2023-07-08T08:31:48;4.73;;;3.03;;
15043;SDS011;7619;48.562;8.910;2023-07-08T08:34:17;4.27;;;3.10;;
15043;SDS011;7619;48.562;8.910;2023-07-08T08:36:45;3.93;;;3.03;;
15043;SDS011;7619;48.562;8.910;2023-07-08T08:39:13;2.77;;;2.33;;
15043;SDS011;7619;48.562;8.910;2023-07-08T08:41:41;5.53;;;2.93;;
15043;SDS011;7619;48.562;8.910;2023-07-08T08:44:12;3.93;;;2.97;;
15043;SDS011;7619;48.562;8.910;2023-07-08T08:46:41;3.23;;;2.53;;
15043;SDS011;7619;48.562;8.910;2023-07-08T08:49:13;4.63;;;2.70;;
15043;SDS011;7619;48.562;8.910;2023-07-08T08:51:42;3.00;;;2.37;;
15043;SDS011;7619;48.562;8.910;2023-07-08T08:54:10;3.70;;;2.53;;
15043;SDS011;7619;48.562;8.910;2023-07-08T08:56:39;5.23;;;2.70;;
15043;SDS011;7619;48.562;8.910;2023-07-08T08:59:10;3.77;;;2.33;;
15043;SDS011;7619;48.562;8.910;2023-07-08T09:01:38;3.23;;;2.10;;
15043;SDS011;7619;48.562;8.910;2023-07-08T09:04:08;6.10;;;2.90;;
15043;SDS011;7619;48.562;8.910;2023-07-08T09:06:37;2.20;;;1.77;;
15043;SDS011;7619;48.562;8.910;2023-07-08T09:09:09;2.33;;;1.60;;
15043;SDS011;7619;48.562;8.910;2023-07-08T09:11:40;2.67;;;1.90;;
15043;SDS011;7619;48.562;8.910;2023-07-08T09:14:14;2.17;;;1.83;;
15043;SDS011;7619;48.562;8.910;2023-07-08T09:16:44;2.93;;;2.40;;
15043;SDS011;7619;48.562;8.910;2023-07-08T09:19:14;3.00;;;1.83;;
15043;SDS011;7619;48.562;8.910;2023-07-08T09:21:44;2.17;;;1.60;;
15043;SDS011;7619;48.562;8.910;2023-07-08T09:24:15;2.40;;;1.90;;
15043;SDS011;7619;48.562;8.910;2023-07-08T09:26:44;4.57;;;2.20;;
15043;SDS011;7619;48.562;8.910;2023-07-08T09:29:12;2.67;;;1.93;;
15043;SDS011;7619;48.562;8.910;2023-07-08T09:31:40;2.50;;;2.30;;
15043;SDS011;7619;48.562;8.910;2023-07-08T09:34:10;3.43;;;2.40;;
15043;SDS011;7619;48.562;8.910;2023-07-08T09:36:40;3.67;;;2.27;;
15043;SDS011;7619;48.562;8.910;2023-07-08T09:41:48;3.37;;;2.20;;
15043;SDS011;7619;48.562;8.910;2023-07-08T09:44:19;2.70;;;2.10;;
15043;SDS011;7619;48.562;8.910;2023-07-08T09:46:49;3.30;;;2.00;;
15043;SDS011;7619;48.562;8.910;2023-07-08T09:49:19;3.37;;;2.33;;
15043;SDS011;7619;48.562;8.910;2023-07-08T09:51:49;2.33;;;2.00;;
15043;SDS011;7619;48.562;8.910;2023-07-08T09:54:18;3.00;;;2.10;;
15043;SDS011;7619;48.562;8.910;2023-07-08T09:56:50;2.17;;;1.90;;
15043;SDS011;7619;48.562;8.910;2023-07-08T09:59:19;2.67;;;2.10;;
15043;SDS011;7619;48.562;8.910;2023-07-08T10:01:48;2.83;;;2.23;;
15043;SDS011;7619;48.562;8.910;2023-07-08T10:04:17;2.57;;;2.17;;
15043;SDS011;7619;48.562;8.910;2023-07-08T10:06:47;3.27;;;2.17;;
15043;SDS011;7619;48.562;8.910;2023-07-08T10:09:19;3.33;;;2.30;;
15043;SDS011;7619;48.562;8.910;2023-07-08T10:11:47;4.20;;;2.67;;
15043;SDS011;7619;48.562;8.910;2023-07-08T10:16:54;2.93;;;2.13;;
15043;SDS011;7619;48.562;8.910;2023-07-08T10:22:09;4.73;;;2.43;;
15043;SDS011;7619;48.562;8.910;2023-07-08T10:24:36;3.63;;;3.23;;
15043;SDS011;7619;48.562;8.910;2023-07-08T10:27:07;4.93;;;2.97;;
15043;SDS011;7619;48.562;8.910;2023-07-08T10:32:18;2.37;;;1.73;;
15043;SDS011;7619;48.562;8.910;2023-07-08T10:34:54;3.27;;;2.00;;
15043;SDS011;7619;48.562;8.910;2023-07-08T10:37:27;2.53;;;2.00;;
15043;SDS011;7619;48.562;8.910;2023-07-08T10:40:01;2.67;;;1.73;;
15043;SDS011;7619;48.562;8.910;2023-07-08T10:42:35;2.27;;;1.77;;
15043;SDS011;7619;48.562;8.910;2023-07-08T10:45:06;3.67;;;1.77;;
15043;SDS011;7619;48.562;8.910;2023-07-08T10:47:45;2.17;;;1.70;;
15043;SDS011;7619;48.562;8.910;2023-07-08T10:50:14;2.00;;;1.80;;
15043;SDS011;7619;48.562;8.910;2023-07-08T10:52:44;2.00;;;1.80;;
15043;SDS011;7619;48.562;8.910;2023-07-08T10:55:20;1.83;;;1.60;;
15043;SDS011;7619;48.562;8.910;2023-07-08T10:57:53;2.07;;;1.23;;
15043;SDS011;7619;48.562;8.910;2023-07-08T11:00:24;1.40;;;1.30;;
15043;SDS011;7619;48.562;8.910;2023-07-08T11:02:57;1.80;;;1.60;;
15043;SDS011;7619;48.562;8.910;2023-07-08T11:05:28;2.20;;;1.60;;
15043;SDS011;7619;48.562;8.910;2023-07-08T11:07:58;2.20;;;1.80;;
15043;SDS011;7619;48.562;8.910;2023-07-08T11:10:29;1.60;;;1.50;;
15043;SDS011;7619;48.562;8.910;2023-07-08T11:12:58;2.67;;;1.17;;
15043;SDS011;7619;48.562;8.910;2023-07-08T11:15:28;1.97;;;1.50;;
15043;SDS011;7619;48.562;8.910;2023-07-08T11:17:58;1.70;;;1.50;;
15043;SDS011;7619;48.562;8.910;2023-07-08T11:20:36;3.13;;;1.77;;
15043;SDS011;7619;48.562;8.910;2023-07-08T11:23:00;2.07;;;1.43;;
15043;SDS011;7619;48.562;8.910;2023-07-08T11:25:27;2.33;;;1.50;;
15043;SDS011;7619;48.562;8.910;2023-07-08T11:27:57;1.60;;;1.50;;
15043;SDS011;7619;48.562;8.910;2023-07-08T11:30:27;1.40;;;1.17;;
15043;SDS011;7619;48.562;8.910;2023-07-08T11:32:58;0.70;;;0.70;;
15043;SDS011;7619;48.562;8.910;2023-07-08T11:35:32;1.87;;;1.23;;
15043;SDS011;7619;48.562;8.910;2023-07-08T11:37:58;1.97;;;1.30;;
15043;SDS011;7619;48.562;8.910;2023-07-08T11:40:26;1.20;;;1.10;;
15043;SDS011;7619;48.562;8.910;2023-07-08T11:43:00;1.30;;;1.13;;
15043;SDS011;7619;48.562;8.910;2023-07-08T11:45:25;2.07;;;1.27;;
15043;SDS011;7619;48.562;8.910;2023-07-08T11:48:02;2.40;;;1.30;;
15043;SDS011;7619;48.562;8.910;2023-07-08T11:50:28;2.47;;;1.03;;
15043;SDS011;7619;48.562;8.910;2023-07-08T11:52:58;1.50;;;1.10;;
15043;SDS011;7619;48.562;8.910;2023-07-08T11:55:26;1.60;;;1.00;;
15043;SDS011;7619;48.562;8.910;2023-07-08T11:57:55;1.10;;;1.00;;
15043;SDS011;7619;48.562;8.910;2023-07-08T12:00:25;1.77;;;0.83;;
15043;SDS011;7619;48.562;8.910;2023-07-08T12:02:54;1.90;;;1.00;;
15043;SDS011;7619;48.562;8.910;2023-07-08T12:05:33;1.13;;;1.03;;
15043;SDS011;7619;48.562;8.910;2023-07-08T12:08:02;1.27;;;1.03;;
15043;SDS011;7619;48.562;8.910;2023-07-08T12:10:34;1.40;;;1.30;;
15043;SDS011;7619;48.562;8.910;2023-07-08T12:13:05;1.17;;;1.03;;
15043;SDS011;7619;48.562;8.910;2023-07-08T12:15:33;0.73;;;0.70;;
15043;SDS011;7619;48.562;8.910;2023-07-08T12:18:02;3.03;;;1.13;;
15043;SDS011;7619;48.562;8.910;2023-07-08T12:20:33;1.40;;;1.07;;
15043;SDS011;7619;48.562;8.910;2023-07-08T12:23:00;1.90;;;0.83;;
15043;SDS011;7619;48.562;8.910;2023-07-08T12:25:30;1.83;;;1.00;;
15043;SDS011;7619;48.562;8.910;2023-07-08T12:27:59;2.90;;;1.00;;
15043;SDS011;7619;48.562;8.910;2023-07-08T12:30:28;1.10;;;1.00;;
15043;SDS011;7619;48.562;8.910;2023-07-08T12:32:57;1.40;;;1.10;;
15043;SDS011;7619;48.562;8.910;2023-07-08T12:35:27;0.87;;;0.80;;
15043;SDS011;7619;48.562;8.910;2023-07-08T12:37:57;0.73;;;0.73;;
15043;SDS011;7619;48.562;8.910;2023-07-08T12:40:27;1.10;;;1.00;;
15043;SDS011;7619;48.562;8.910;2023-07-08T12:42:56;1.00;;;0.93;;
15043;SDS011;7619;48.562;8.910;2023-07-08T12:45:26;1.43;;;1.07;;
15043;SDS011;7619;48.562;8.910;2023-07-08T12:47:55;2.20;;;1.13;;
15043;SDS011;7619;48.562;8.910;2023-07-08T12:50:23;0.83;;;0.83;;
15043;SDS011;7619;48.562;8.910;2023-07-08T12:52:51;1.10;;;1.00;;
15043;SDS011;7619;48.562;8.910;2023-07-08T12:55:20;2.53;;;1.20;;
15043;SDS011;7619;48.562;8.910;2023-07-08T12:57:49;1.03;;;0.90;;
15043;SDS011;7619;48.562;8.910;2023-07-08T13:00:21;1.10;;;1.00;;
15043;SDS011;7619;48.562;8.910;2023-07-08T13:02:48;1.60;;;1.10;;
15043;SDS011;7619;48.562;8.910;2023-07-08T13:05:18;1.33;;;1.03;;
15043;SDS011;7619;48.562;8.910;2023-07-08T13:07:47;1.60;;;1.10;;
15043;SDS011;7619;48.562;8.910;2023-07-08T13:10:17;1.27;;;1.17;;
15043;SDS011;7619;48.562;8.910;2023-07-08T13:12:46;1.03;;;0.80;;
15043;SDS011;7619;48.562;8.910;2023-07-08T13:15:18;1.23;;;1.13;;
15043;SDS011;7619;48.562;8.910;2023-07-08T13:17:46;1.33;;;1.00;;
15043;SDS011;7619;48.562;8.910;2023-07-08T13:20:15;1.40;;;1.27;;
15043;SDS011;7619;48.562;8.910;2023-07-08T13:22:45;1.07;;;0.90;;
15043;SDS011;7619;48.562;8.910;2023-07-08T13:25:15;1.63;;;1.03;;
15043;SDS011;7619;48.562;8.910;2023-07-08T13:27:54;1.40;;;0.93;;
15043;SDS011;7619;48.562;8.910;2023-07-08T13:30:24;1.27;;;1.03;;
15043;SDS011;7619;48.562;8.910;2023-07-08T13:32:53;2.53;;;1.00;;
15043;SDS011;7619;48.562;8.910;2023-07-08T13:35:25;2.13;;;1.33;;
15043;SDS011;7619;48.562;8.910;2023-07-08T13:37:55;1.73;;;1.00;;
15043;SDS011;7619;48.562;8.910;2023-07-08T13:40:26;1.53;;;1.13;;
15043;SDS011;7619;48.562;8.910;2023-07-08T13:42:55;2.50;;;1.40;;
15043;SDS011;7619;48.562;8.910;2023-07-08T13:45:24;1.43;;;1.20;;
15043;SDS011;7619;48.562;8.910;2023-07-08T13:48:00;1.83;;;0.90;;
15043;SDS011;7619;48.562;8.910;2023-07-08T13:50:29;1.20;;;1.03;;
15043;SDS011;7619;48.562;8.910;2023-07-08T13:52:59;1.47;;;1.13;;
15043;SDS011;7619;48.562;8.910;2023-07-08T13:55:28;1.23;;;1.00;;
15043;SDS011;7619;48.562;8.910;2023-07-08T13:57:57;2.27;;;1.10;;
15043;SDS011;7619;48.562;8.910;2023-07-08T14:00:28;1.93;;;1.20;;
15043;SDS011;7619;48.562;8.910;2023-07-08T14:02:56;2.23;;;1.60;;
15043;SDS011;7619;48.562;8.910;2023-07-08T14:05:25;1.43;;;1.20;;
15043;SDS011;7619;48.562;8.910;2023-07-08T14:07:53;1.63;;;1.30;;
15043;SDS011;7619;48.562;8.910;2023-07-08T14:10:22;1.30;;;1.20;;
15043;SDS011;7619;48.562;8.910;2023-07-08T14:12:50;1.17;;;0.87;;
15043;SDS011;7619;48.562;8.910;2023-07-08T14:15:19;2.10;;;0.77;;
15043;SDS011;7619;48.562;8.910;2023-07-08T14:17:47;1.27;;;1.17;;
15043;SDS011;7619;48.562;8.910;2023-07-08T14:20:16;1.40;;;1.00;;
15043;SDS011;7619;48.562;8.910;2023-07-08T14:22:45;1.00;;;0.90;;
15043;SDS011;7619;48.562;8.910;2023-07-08T14:25:14;1.40;;;1.20;;
15043;SDS011;7619;48.562;8.910;2023-07-08T14:27:43;0.73;;;0.73;;
15043;SDS011;7619;48.562;8.910;2023-07-08T14:30:12;1.30;;;1.20;;
15043;SDS011;7619;48.562;8.910;2023-07-08T14:32:42;1.83;;;1.07;;
15043;SDS011;7619;48.562;8.910;2023-07-08T14:35:14;1.47;;;1.20;;
15043;SDS011;7619;48.562;8.910;2023-07-08T14:37:42;1.40;;;1.00;;
15043;SDS011;7619;48.562;8.910;2023-07-08T14:40:22;1.00;;;0.90;;
15043;SDS011;7619;48.562;8.910;2023-07-08T14:42:53;2.13;;;0.90;;
15043;SDS011;7619;48.562;8.910;2023-07-08T14:45:22;2.17;;;1.60;;
15043;SDS011;7619;48.562;8.910;2023-07-08T14:47:51;1.57;;;1.00;;
15043;SDS011;7619;48.562;8.910;2023-07-08T14:50:19;1.90;;;1.10;;
15043;SDS011;7619;48.562;8.910;2023-07-08T14:52:47;1.43;;;0.97;;
15043;SDS011;7619;48.562;8.910;2023-07-08T14:55:16;1.20;;;1.10;;
15043;SDS011;7619;48.562;8.910;2023-07-08T14:57:44;1.00;;;0.90;;
15043;SDS011;7619;48.562;8.910;2023-07-08T15:00:14;1.27;;;0.90;;
15043;SDS011;7619;48.562;8.910;2023-07-08T15:02:43;1.00;;;0.90;;
15043;SDS011;7619;48.562;8.910;2023-07-08T15:05:16;1.10;;;0.80;;
15043;SDS011;7619;48.562;8.910;2023-07-08T15:07:44;1.10;;;1.00;;
15043;SDS011;7619;48.562;8.910;2023-07-08T15:10:12;1.70;;;1.23;;
15043;SDS011;7619;48.562;8.910;2023-07-08T15:12:41;2.33;;;1.07;;
15043;SDS011;7619;48.562;8.910;2023-07-08T15:15:14;1.70;;;1.17;;
15043;SDS011;7619;48.562;8.910;2023-07-08T15:17:42;1.73;;;0.97;;
15043;SDS011;7619;48.562;8.910;2023-07-08T15:20:13;1.13;;;0.80;;
15043;SDS011;7619;48.562;8.910;2023-07-08T15:22:42;1.20;;;1.07;;
15043;SDS011;7619;48.562;8.910;2023-07-08T15:25:11;0.97;;;0.87;;
15043;SDS011;7619;48.562;8.910;2023-07-08T15:27:40;1.20;;;1.00;;